sensor_id;sensor_type;location;lat;lon;timestamp;P1;durP1;ratioP1;P2;durP2;ratioP2
60336;SDS011;46978;50.288;28.624;2023-07-16T00:00:14;20.22;;;11.70;;
60336;SDS011;46978;50.288;28.624;2023-07-16T00:01:16;17.56;;;11.04;;
60336;SDS011;46978;50.288;28.624;2023-07-16T00:02:18;16.35;;;11.43;;
60336;SDS011;46978;50.288;28.624;2023-07-16T00:03:19;18.49;;;11.31;;
60336;SDS011;46978;50.288;28.624;2023-07-16T00:04:21;16.68;;;11.86;;
60336;SDS011;46978;50.288;28.624;2023-07-16T00:05:22;16.09;;;11.00;;
60336;SDS011;46978;50.288;28.624;2023-07-16T00:06:24;21.24;;;11.51;;
60336;SDS011;46978;50.288;28.624;2023-07-16T00:07:26;20.02;;;11.88;;
60336;SDS011;46978;50.288;28.624;2023-07-16T00:08:27;17.61;;;11.92;;
60336;SDS011;46978;50.288;28.624;2023-07-16T00:09:29;19.04;;;11.46;;
60336;SDS011;46978;50.288;28.624;2023-07-16T00:10:34;16.74;;;11.45;;
60336;SDS011;46978;50.288;28.624;2023-07-16T00:11:36;18.78;;;10.94;;
60336;SDS011;46978;50.288;28.624;2023-07-16T00:12:37;15.89;;;11.48;;
60336;SDS011;46978;50.288;28.624;2023-07-16T00:13:39;18.00;;;10.90;;
60336;SDS011;46978;50.288;28.624;2023-07-16T00:14:41;15.71;;;10.91;;
60336;SDS011;46978;50.288;28.624;2023-07-16T00:15:43;16.96;;;11.30;;
60336;SDS011;46978;50.288;28.624;2023-07-16T00:16:44;17.54;;;10.84;;
60336;SDS011;46978;50.288;28.624;2023-07-16T00:17:46;17.46;;;10.83;;
60336;SDS011;46978;50.288;28.624;2023-07-16T00:18:47;18.24;;;11.18;;
60336;SDS011;46978;50.288;28.624;2023-07-16T00:19:49;17.80;;;10.35;;
60336;SDS011;46978;50.288;28.624;2023-07-16T00:20:50;16.93;;;10.96;;
60336;SDS011;46978;50.288;28.624;2023-07-16T00:21:52;16.85;;;11.24;;
60336;SDS011;46978;50.288;28.624;2023-07-16T00:22:54;17.97;;;11.16;;
60336;SDS011;46978;50.288;28.624;2023-07-16T00:23:55;18.67;;;10.69;;
60336;SDS011;46978;50.288;28.624;2023-07-16T00:24:57;16.11;;;10.48;;
60336;SDS011;46978;50.288;28.624;2023-07-16T00:25:58;16.01;;;10.60;;
60336;SDS011;46978;50.288;28.624;2023-07-16T00:27:00;16.01;;;9.99;;
60336;SDS011;46978;50.288;28.624;2023-07-16T00:28:02;17.70;;;11.52;;
60336;SDS011;46978;50.288;28.624;2023-07-16T00:29:03;20.06;;;12.57;;
60336;SDS011;46978;50.288;28.624;2023-07-16T00:30:06;18.70;;;10.99;;
60336;SDS011;46978;50.288;28.624;2023-07-16T00:31:09;17.66;;;11.51;;
60336;SDS011;46978;50.288;28.624;2023-07-16T00:32:11;17.68;;;11.24;;
60336;SDS011;46978;50.288;28.624;2023-07-16T00:33:13;17.99;;;10.75;;
60336;SDS011;46978;50.288;28.624;2023-07-16T00:34:15;20.11;;;11.59;;
60336;SDS011;46978;50.288;28.624;2023-07-16T00:35:16;16.60;;;10.72;;
60336;SDS011;46978;50.288;28.624;2023-07-16T00:36:18;18.50;;;11.48;;
60336;SDS011;46978;50.288;28.624;2023-07-16T00:37:20;16.43;;;10.84;;
60336;SDS011;46978;50.288;28.624;2023-07-16T00:38:21;17.72;;;11.21;;
60336;SDS011;46978;50.288;28.624;2023-07-16T00:39:23;16.18;;;10.08;;
60336;SDS011;46978;50.288;28.624;2023-07-16T00:40:25;18.63;;;10.90;;
60336;SDS011;46978;50.288;28.624;2023-07-16T00:41:26;16.34;;;11.02;;
60336;SDS011;46978;50.288;28.624;2023-07-16T00:42:28;19.28;;;11.42;;
60336;SDS011;46978;50.288;28.624;2023-07-16T00:43:29;17.82;;;10.93;;
60336;SDS011;46978;50.288;28.624;2023-07-16T00:44:31;16.67;;;10.64;;
60336;SDS011;46978;50.288;28.624;2023-07-16T00:45:34;16.63;;;10.56;;
60336;SDS011;46978;50.288;28.624;2023-07-16T00:46:37;18.77;;;10.90;;
60336;SDS011;46978;50.288;28.624;2023-07-16T00:47:40;15.97;;;10.22;;
60336;SDS011;46978;50.288;28.624;2023-07-16T00:48:43;15.18;;;9.37;;
60336;SDS011;46978;50.288;28.624;2023-07-16T00:49:45;18.57;;;9.27;;
60336;SDS011;46978;50.288;28.624;2023-07-16T00:50:47;14.25;;;9.01;;
60336;SDS011;46978;50.288;28.624;2023-07-16T00:51:48;13.21;;;8.41;;
60336;SDS011;46978;50.288;28.624;2023-07-16T00:52:52;13.88;;;8.08;;
60336;SDS011;46978;50.288;28.624;2023-07-16T00:53:54;13.89;;;8.31;;
60336;SDS011;46978;50.288;28.624;2023-07-16T00:54:55;13.66;;;8.69;;
60336;SDS011;46978;50.288;28.624;2023-07-16T00:55:57;12.42;;;7.82;;
60336;SDS011;46978;50.288;28.624;2023-07-16T00:56:59;12.45;;;8.81;;
60336;SDS011;46978;50.288;28.624;2023-07-16T00:58:02;13.67;;;9.29;;
60336;SDS011;46978;50.288;28.624;2023-07-16T00:59:05;13.88;;;9.06;;
60336;SDS011;46978;50.288;28.624;2023-07-16T01:00:08;14.37;;;9.45;;
60336;SDS011;46978;50.288;28.624;2023-07-16T01:01:10;13.99;;;8.44;;
60336;SDS011;46978;50.288;28.624;2023-07-16T01:02:12;13.26;;;8.17;;
60336;SDS011;46978;50.288;28.624;2023-07-16T01:03:14;13.99;;;8.79;;
60336;SDS011;46978;50.288;28.624;2023-07-16T01:04:16;15.76;;;8.89;;
60336;SDS011;46978;50.288;28.624;2023-07-16T01:05:18;14.07;;;8.45;;
60336;SDS011;46978;50.288;28.624;2023-07-16T01:06:36;16.57;;;8.53;;
60336;SDS011;46978;50.288;28.624;2023-07-16T01:07:39;13.41;;;8.44;;
60336;SDS011;46978;50.288;28.624;2023-07-16T01:08:49;14.32;;;8.10;;
60336;SDS011;46978;50.288;28.624;2023-07-16T01:09:52;11.24;;;7.69;;
60336;SDS011;46978;50.288;28.624;2023-07-16T01:10:56;13.88;;;8.53;;
60336;SDS011;46978;50.288;28.624;2023-07-16T01:11:59;14.83;;;8.13;;
60336;SDS011;46978;50.288;28.624;2023-07-16T01:13:01;13.64;;;7.97;;
60336;SDS011;46978;50.288;28.624;2023-07-16T01:14:04;14.94;;;8.02;;
60336;SDS011;46978;50.288;28.624;2023-07-16T01:15:08;14.45;;;8.41;;
60336;SDS011;46978;50.288;28.624;2023-07-16T01:16:24;14.28;;;8.64;;
60336;SDS011;46978;50.288;28.624;2023-07-16T01:17:24;14.67;;;8.42;;
60336;SDS011;46978;50.288;28.624;2023-07-16T01:18:26;13.89;;;8.27;;
60336;SDS011;46978;50.288;28.624;2023-07-16T01:19:27;13.23;;;7.68;;
60336;SDS011;46978;50.288;28.624;2023-07-16T01:20:29;12.41;;;8.29;;
60336;SDS011;46978;50.288;28.624;2023-07-16T01:21:33;13.24;;;8.46;;
60336;SDS011;46978;50.288;28.624;2023-07-16T01:29:35;13.37;;;8.32;;
60336;SDS011;46978;50.288;28.624;2023-07-16T01:30:39;10.07;;;7.83;;
60336;SDS011;46978;50.288;28.624;2023-07-16T01:31:43;16.03;;;9.04;;
60336;SDS011;46978;50.288;28.624;2023-07-16T01:32:47;12.63;;;8.25;;
60336;SDS011;46978;50.288;28.624;2023-07-16T01:33:50;12.29;;;7.98;;
60336;SDS011;46978;50.288;28.624;2023-07-16T01:34:53;10.56;;;7.91;;
60336;SDS011;46978;50.288;28.624;2023-07-16T01:35:54;11.94;;;8.09;;
60336;SDS011;46978;50.288;28.624;2023-07-16T01:36:58;13.28;;;8.46;;
60336;SDS011;46978;50.288;28.624;2023-07-16T01:38:01;13.71;;;8.48;;
60336;SDS011;46978;50.288;28.624;2023-07-16T01:39:03;12.28;;;8.42;;
60336;SDS011;46978;50.288;28.624;2023-07-16T01:40:06;12.35;;;8.20;;
60336;SDS011;46978;50.288;28.624;2023-07-16T01:41:09;14.69;;;8.42;;
60336;SDS011;46978;50.288;28.624;2023-07-16T01:42:12;12.88;;;8.05;;
60336;SDS011;46978;50.288;28.624;2023-07-16T01:43:13;12.90;;;8.33;;
60336;SDS011;46978;50.288;28.624;2023-07-16T01:44:15;12.57;;;8.27;;
60336;SDS011;46978;50.288;28.624;2023-07-16T01:45:17;12.00;;;8.39;;
60336;SDS011;46978;50.288;28.624;2023-07-16T01:46:19;11.81;;;7.86;;
60336;SDS011;46978;50.288;28.624;2023-07-16T01:48:50;14.84;;;8.70;;
60336;SDS011;46978;50.288;28.624;2023-07-16T01:49:52;13.09;;;8.70;;
60336;SDS011;46978;50.288;28.624;2023-07-16T01:50:54;13.51;;;8.79;;
60336;SDS011;46978;50.288;28.624;2023-07-16T01:51:55;15.24;;;9.17;;
60336;SDS011;46978;50.288;28.624;2023-07-16T01:52:57;13.09;;;8.00;;
60336;SDS011;46978;50.288;28.624;2023-07-16T01:53:58;11.86;;;7.84;;
60336;SDS011;46978;50.288;28.624;2023-07-16T01:55:00;12.56;;;8.02;;
60336;SDS011;46978;50.288;28.624;2023-07-16T01:56:02;15.91;;;8.66;;
60336;SDS011;46978;50.288;28.624;2023-07-16T01:57:03;11.83;;;8.52;;
60336;SDS011;46978;50.288;28.624;2023-07-16T01:58:05;16.57;;;8.87;;
60336;SDS011;46978;50.288;28.624;2023-07-16T01:59:07;13.95;;;8.76;;
60336;SDS011;46978;50.288;28.624;2023-07-16T02:00:09;10.89;;;8.13;;
60336;SDS011;46978;50.288;28.624;2023-07-16T02:01:11;13.57;;;7.92;;
60336;SDS011;46978;50.288;28.624;2023-07-16T02:02:13;11.51;;;8.32;;
60336;SDS011;46978;50.288;28.624;2023-07-16T02:03:14;12.59;;;8.11;;
60336;SDS011;46978;50.288;28.624;2023-07-16T02:04:16;12.24;;;8.21;;
60336;SDS011;46978;50.288;28.624;2023-07-16T02:05:17;13.94;;;8.61;;
60336;SDS011;46978;50.288;28.624;2023-07-16T02:06:19;12.61;;;8.19;;
60336;SDS011;46978;50.288;28.624;2023-07-16T02:07:21;14.46;;;9.22;;
60336;SDS011;46978;50.288;28.624;2023-07-16T02:08:23;12.27;;;8.97;;
60336;SDS011;46978;50.288;28.624;2023-07-16T02:09:24;13.99;;;8.48;;
60336;SDS011;46978;50.288;28.624;2023-07-16T02:10:26;11.90;;;8.34;;
60336;SDS011;46978;50.288;28.624;2023-07-16T02:11:28;12.66;;;8.48;;
60336;SDS011;46978;50.288;28.624;2023-07-16T02:12:30;12.49;;;8.38;;
60336;SDS011;46978;50.288;28.624;2023-07-16T02:13:31;10.81;;;8.43;;
60336;SDS011;46978;50.288;28.624;2023-07-16T02:14:33;13.20;;;8.46;;
60336;SDS011;46978;50.288;28.624;2023-07-16T02:15:35;13.81;;;8.73;;
60336;SDS011;46978;50.288;28.624;2023-07-16T02:16:36;13.33;;;8.42;;
60336;SDS011;46978;50.288;28.624;2023-07-16T02:17:38;11.57;;;8.04;;
60336;SDS011;46978;50.288;28.624;2023-07-16T02:18:39;11.28;;;7.59;;
60336;SDS011;46978;50.288;28.624;2023-07-16T02:19:41;10.51;;;7.56;;
60336;SDS011;46978;50.288;28.624;2023-07-16T02:20:43;13.38;;;8.21;;
60336;SDS011;46978;50.288;28.624;2023-07-16T02:21:45;11.51;;;7.79;;
60336;SDS011;46978;50.288;28.624;2023-07-16T02:24:08;12.09;;;8.37;;
60336;SDS011;46978;50.288;28.624;2023-07-16T02:25:09;10.79;;;7.71;;
60336;SDS011;46978;50.288;28.624;2023-07-16T02:26:11;10.70;;;7.69;;
60336;SDS011;46978;50.288;28.624;2023-07-16T02:27:12;12.79;;;7.71;;
60336;SDS011;46978;50.288;28.624;2023-07-16T02:28:14;10.06;;;7.37;;
60336;SDS011;46978;50.288;28.624;2023-07-16T02:29:15;10.79;;;7.48;;
60336;SDS011;46978;50.288;28.624;2023-07-16T02:30:17;10.25;;;7.45;;
60336;SDS011;46978;50.288;28.624;2023-07-16T02:31:19;11.54;;;8.29;;
60336;SDS011;46978;50.288;28.624;2023-07-16T02:32:21;11.23;;;7.78;;
60336;SDS011;46978;50.288;28.624;2023-07-16T02:33:23;8.93;;;7.15;;
60336;SDS011;46978;50.288;28.624;2023-07-16T02:34:24;10.44;;;7.39;;
60336;SDS011;46978;50.288;28.624;2023-07-16T02:35:26;12.61;;;7.83;;
60336;SDS011;46978;50.288;28.624;2023-07-16T02:36:27;13.45;;;8.60;;
60336;SDS011;46978;50.288;28.624;2023-07-16T02:37:29;12.49;;;8.26;;
60336;SDS011;46978;50.288;28.624;2023-07-16T02:39:52;11.51;;;8.54;;
60336;SDS011;46978;50.288;28.624;2023-07-16T02:40:54;12.67;;;8.02;;
60336;SDS011;46978;50.288;28.624;2023-07-16T02:41:55;13.11;;;8.34;;
60336;SDS011;46978;50.288;28.624;2023-07-16T02:42:57;11.90;;;8.26;;
60336;SDS011;46978;50.288;28.624;2023-07-16T02:44:03;10.94;;;8.11;;
60336;SDS011;46978;50.288;28.624;2023-07-16T02:45:03;12.35;;;8.30;;
60336;SDS011;46978;50.288;28.624;2023-07-16T02:46:06;13.20;;;8.60;;
60336;SDS011;46978;50.288;28.624;2023-07-16T02:47:07;11.11;;;7.86;;
60336;SDS011;46978;50.288;28.624;2023-07-16T02:48:09;11.32;;;8.02;;
60336;SDS011;46978;50.288;28.624;2023-07-16T02:49:10;10.62;;;7.86;;
60336;SDS011;46978;50.288;28.624;2023-07-16T02:50:13;12.33;;;8.93;;
60336;SDS011;46978;50.288;28.624;2023-07-16T02:51:14;13.27;;;8.21;;
60336;SDS011;46978;50.288;28.624;2023-07-16T02:52:16;13.98;;;8.16;;
60336;SDS011;46978;50.288;28.624;2023-07-16T02:53:18;11.37;;;7.99;;
60336;SDS011;46978;50.288;28.624;2023-07-16T02:54:19;13.77;;;8.08;;
60336;SDS011;46978;50.288;28.624;2023-07-16T02:55:21;12.04;;;8.68;;
60336;SDS011;46978;50.288;28.624;2023-07-16T02:56:22;11.14;;;7.81;;
60336;SDS011;46978;50.288;28.624;2023-07-16T02:57:24;11.19;;;7.36;;
60336;SDS011;46978;50.288;28.624;2023-07-16T02:58:26;10.83;;;7.19;;
60336;SDS011;46978;50.288;28.624;2023-07-16T02:59:27;10.01;;;7.75;;
60336;SDS011;46978;50.288;28.624;2023-07-16T03:00:29;10.01;;;6.81;;
60336;SDS011;46978;50.288;28.624;2023-07-16T03:01:31;13.55;;;6.75;;
60336;SDS011;46978;50.288;28.624;2023-07-16T03:02:33;11.89;;;7.32;;
60336;SDS011;46978;50.288;28.624;2023-07-16T03:03:35;10.11;;;7.04;;
60336;SDS011;46978;50.288;28.624;2023-07-16T03:04:36;10.91;;;7.65;;
60336;SDS011;46978;50.288;28.624;2023-07-16T03:05:38;11.35;;;7.14;;
60336;SDS011;46978;50.288;28.624;2023-07-16T03:06:40;10.07;;;7.04;;
60336;SDS011;46978;50.288;28.624;2023-07-16T03:07:42;11.59;;;6.61;;
60336;SDS011;46978;50.288;28.624;2023-07-16T03:08:44;10.87;;;6.72;;
60336;SDS011;46978;50.288;28.624;2023-07-16T03:09:45;11.57;;;7.41;;
60336;SDS011;46978;50.288;28.624;2023-07-16T03:10:47;11.92;;;6.45;;
60336;SDS011;46978;50.288;28.624;2023-07-16T03:11:48;10.89;;;6.77;;
60336;SDS011;46978;50.288;28.624;2023-07-16T03:12:50;11.26;;;6.78;;
60336;SDS011;46978;50.288;28.624;2023-07-16T03:13:51;10.84;;;6.62;;
60336;SDS011;46978;50.288;28.624;2023-07-16T03:14:53;11.39;;;6.96;;
60336;SDS011;46978;50.288;28.624;2023-07-16T03:15:54;12.48;;;6.69;;
60336;SDS011;46978;50.288;28.624;2023-07-16T03:16:56;10.78;;;6.96;;
60336;SDS011;46978;50.288;28.624;2023-07-16T03:17:58;11.41;;;7.12;;
60336;SDS011;46978;50.288;28.624;2023-07-16T03:18:59;12.63;;;7.22;;
60336;SDS011;46978;50.288;28.624;2023-07-16T03:20:02;9.74;;;6.88;;
60336;SDS011;46978;50.288;28.624;2023-07-16T03:21:04;10.21;;;6.99;;
60336;SDS011;46978;50.288;28.624;2023-07-16T03:22:05;11.09;;;6.95;;
60336;SDS011;46978;50.288;28.624;2023-07-16T03:23:07;11.15;;;7.30;;
60336;SDS011;46978;50.288;28.624;2023-07-16T03:24:08;13.29;;;7.04;;
60336;SDS011;46978;50.288;28.624;2023-07-16T03:25:10;12.03;;;6.94;;
60336;SDS011;46978;50.288;28.624;2023-07-16T03:26:12;9.18;;;6.29;;
60336;SDS011;46978;50.288;28.624;2023-07-16T03:27:14;10.41;;;6.30;;
60336;SDS011;46978;50.288;28.624;2023-07-16T03:28:15;9.67;;;6.81;;
60336;SDS011;46978;50.288;28.624;2023-07-16T03:29:17;9.89;;;6.58;;
60336;SDS011;46978;50.288;28.624;2023-07-16T03:30:19;11.23;;;7.06;;
60336;SDS011;46978;50.288;28.624;2023-07-16T03:31:20;13.16;;;6.94;;
60336;SDS011;46978;50.288;28.624;2023-07-16T03:32:22;9.59;;;6.34;;
60336;SDS011;46978;50.288;28.624;2023-07-16T03:33:23;10.03;;;7.25;;
60336;SDS011;46978;50.288;28.624;2023-07-16T03:34:25;10.81;;;7.15;;
60336;SDS011;46978;50.288;28.624;2023-07-16T03:35:27;10.56;;;6.81;;
60336;SDS011;46978;50.288;28.624;2023-07-16T03:36:28;12.19;;;7.29;;
60336;SDS011;46978;50.288;28.624;2023-07-16T03:37:30;11.59;;;6.76;;
60336;SDS011;46978;50.288;28.624;2023-07-16T03:38:32;13.84;;;7.64;;
60336;SDS011;46978;50.288;28.624;2023-07-16T03:39:33;9.71;;;6.74;;
60336;SDS011;46978;50.288;28.624;2023-07-16T03:40:35;13.08;;;7.39;;
60336;SDS011;46978;50.288;28.624;2023-07-16T03:41:36;12.39;;;7.39;;
60336;SDS011;46978;50.288;28.624;2023-07-16T03:42:38;12.94;;;7.84;;
60336;SDS011;46978;50.288;28.624;2023-07-16T03:43:39;12.23;;;7.93;;
60336;SDS011;46978;50.288;28.624;2023-07-16T03:44:40;12.52;;;7.46;;
60336;SDS011;46978;50.288;28.624;2023-07-16T03:45:42;15.44;;;8.14;;
60336;SDS011;46978;50.288;28.624;2023-07-16T03:46:44;12.34;;;7.93;;
60336;SDS011;46978;50.288;28.624;2023-07-16T03:47:46;11.22;;;7.53;;
60336;SDS011;46978;50.288;28.624;2023-07-16T03:48:48;13.05;;;7.77;;
60336;SDS011;46978;50.288;28.624;2023-07-16T03:49:49;14.98;;;7.99;;
60336;SDS011;46978;50.288;28.624;2023-07-16T03:50:51;13.65;;;7.84;;
60336;SDS011;46978;50.288;28.624;2023-07-16T03:51:52;12.06;;;7.73;;
60336;SDS011;46978;50.288;28.624;2023-07-16T03:52:54;13.84;;;7.96;;
60336;SDS011;46978;50.288;28.624;2023-07-16T03:53:56;13.89;;;8.16;;
60336;SDS011;46978;50.288;28.624;2023-07-16T03:54:57;13.26;;;8.36;;
60336;SDS011;46978;50.288;28.624;2023-07-16T03:55:59;12.51;;;8.08;;
60336;SDS011;46978;50.288;28.624;2023-07-16T03:57:00;15.59;;;8.83;;
60336;SDS011;46978;50.288;28.624;2023-07-16T03:58:02;13.64;;;8.24;;
60336;SDS011;46978;50.288;28.624;2023-07-16T03:59:04;16.50;;;8.51;;
60336;SDS011;46978;50.288;28.624;2023-07-16T04:00:06;11.78;;;8.02;;
60336;SDS011;46978;50.288;28.624;2023-07-16T04:01:08;14.38;;;7.21;;
60336;SDS011;46978;50.288;28.624;2023-07-16T04:02:10;15.21;;;7.49;;
60336;SDS011;46978;50.288;28.624;2023-07-16T04:03:11;16.24;;;8.29;;
60336;SDS011;46978;50.288;28.624;2023-07-16T04:04:13;12.74;;;6.86;;
60336;SDS011;46978;50.288;28.624;2023-07-16T04:05:15;10.19;;;6.82;;
60336;SDS011;46978;50.288;28.624;2023-07-16T04:06:17;11.45;;;6.16;;
60336;SDS011;46978;50.288;28.624;2023-07-16T04:07:18;11.11;;;6.89;;
60336;SDS011;46978;50.288;28.624;2023-07-16T04:08:20;13.24;;;6.19;;
60336;SDS011;46978;50.288;28.624;2023-07-16T04:09:21;10.76;;;6.11;;
60336;SDS011;46978;50.288;28.624;2023-07-16T04:10:23;9.61;;;5.86;;
60336;SDS011;46978;50.288;28.624;2023-07-16T04:11:25;9.04;;;5.92;;
60336;SDS011;46978;50.288;28.624;2023-07-16T04:12:26;8.42;;;6.49;;
60336;SDS011;46978;50.288;28.624;2023-07-16T04:13:28;7.71;;;5.91;;
60336;SDS011;46978;50.288;28.624;2023-07-16T04:14:29;8.12;;;5.97;;
60336;SDS011;46978;50.288;28.624;2023-07-16T04:15:31;8.54;;;5.43;;
60336;SDS011;46978;50.288;28.624;2023-07-16T04:16:33;9.06;;;5.96;;
60336;SDS011;46978;50.288;28.624;2023-07-16T04:17:34;11.19;;;6.27;;
60336;SDS011;46978;50.288;28.624;2023-07-16T04:18:36;7.59;;;5.69;;
60336;SDS011;46978;50.288;28.624;2023-07-16T04:19:37;8.46;;;6.06;;
60336;SDS011;46978;50.288;28.624;2023-07-16T04:20:39;11.13;;;5.90;;
60336;SDS011;46978;50.288;28.624;2023-07-16T04:21:41;11.08;;;6.29;;
60336;SDS011;46978;50.288;28.624;2023-07-16T04:22:42;8.72;;;5.60;;
60336;SDS011;46978;50.288;28.624;2023-07-16T04:23:44;6.88;;;5.78;;
60336;SDS011;46978;50.288;28.624;2023-07-16T04:24:45;7.03;;;5.49;;
60336;SDS011;46978;50.288;28.624;2023-07-16T04:25:50;8.40;;;5.76;;
60336;SDS011;46978;50.288;28.624;2023-07-16T04:26:54;10.14;;;6.12;;
60336;SDS011;46978;50.288;28.624;2023-07-16T04:27:56;9.96;;;5.59;;
60336;SDS011;46978;50.288;28.624;2023-07-16T04:28:58;9.25;;;5.26;;
60336;SDS011;46978;50.288;28.624;2023-07-16T04:29:59;11.39;;;5.79;;
60336;SDS011;46978;50.288;28.624;2023-07-16T04:31:01;8.69;;;5.23;;
60336;SDS011;46978;50.288;28.624;2023-07-16T04:32:03;11.52;;;6.06;;
60336;SDS011;46978;50.288;28.624;2023-07-16T04:33:05;8.05;;;5.02;;
60336;SDS011;46978;50.288;28.624;2023-07-16T04:34:06;7.49;;;5.55;;
60336;SDS011;46978;50.288;28.624;2023-07-16T04:35:08;8.49;;;5.29;;
60336;SDS011;46978;50.288;28.624;2023-07-16T04:36:10;8.48;;;4.99;;
60336;SDS011;46978;50.288;28.624;2023-07-16T04:37:12;8.59;;;5.56;;
60336;SDS011;46978;50.288;28.624;2023-07-16T04:38:13;10.41;;;5.13;;
60336;SDS011;46978;50.288;28.624;2023-07-16T04:39:15;7.19;;;4.76;;
60336;SDS011;46978;50.288;28.624;2023-07-16T04:40:17;7.38;;;4.87;;
60336;SDS011;46978;50.288;28.624;2023-07-16T04:41:18;7.11;;;5.13;;
60336;SDS011;46978;50.288;28.624;2023-07-16T04:42:20;7.56;;;4.92;;
60336;SDS011;46978;50.288;28.624;2023-07-16T04:43:22;8.24;;;5.28;;
60336;SDS011;46978;50.288;28.624;2023-07-16T04:44:23;7.61;;;5.54;;
60336;SDS011;46978;50.288;28.624;2023-07-16T04:45:25;8.74;;;4.96;;
60336;SDS011;46978;50.288;28.624;2023-07-16T04:46:27;7.50;;;5.08;;
60336;SDS011;46978;50.288;28.624;2023-07-16T04:47:28;6.96;;;4.47;;
60336;SDS011;46978;50.288;28.624;2023-07-16T04:48:30;8.36;;;4.98;;
60336;SDS011;46978;50.288;28.624;2023-07-16T04:49:33;9.16;;;5.24;;
60336;SDS011;46978;50.288;28.624;2023-07-16T04:50:36;7.31;;;5.14;;
60336;SDS011;46978;50.288;28.624;2023-07-16T04:51:37;7.35;;;4.84;;
60336;SDS011;46978;50.288;28.624;2023-07-16T04:52:39;6.91;;;4.77;;
60336;SDS011;46978;50.288;28.624;2023-07-16T04:53:40;7.35;;;4.94;;
60336;SDS011;46978;50.288;28.624;2023-07-16T04:54:42;8.83;;;5.11;;
60336;SDS011;46978;50.288;28.624;2023-07-16T04:55:44;7.87;;;5.35;;
60336;SDS011;46978;50.288;28.624;2023-07-16T04:56:46;6.76;;;4.99;;
60336;SDS011;46978;50.288;28.624;2023-07-16T04:57:47;7.80;;;5.12;;
60336;SDS011;46978;50.288;28.624;2023-07-16T04:58:49;9.18;;;4.86;;
60336;SDS011;46978;50.288;28.624;2023-07-16T04:59:50;7.56;;;4.97;;
60336;SDS011;46978;50.288;28.624;2023-07-16T05:00:52;7.99;;;4.71;;
60336;SDS011;46978;50.288;28.624;2023-07-16T05:01:54;18.06;;;5.50;;
60336;SDS011;46978;50.288;28.624;2023-07-16T05:02:55;7.50;;;5.31;;
60336;SDS011;46978;50.288;28.624;2023-07-16T05:03:56;6.99;;;4.83;;
60336;SDS011;46978;50.288;28.624;2023-07-16T05:04:58;6.59;;;4.57;;
60336;SDS011;46978;50.288;28.624;2023-07-16T05:06:00;6.22;;;4.99;;
60336;SDS011;46978;50.288;28.624;2023-07-16T05:07:02;7.96;;;5.04;;
60336;SDS011;46978;50.288;28.624;2023-07-16T05:08:04;6.81;;;4.91;;
60336;SDS011;46978;50.288;28.624;2023-07-16T05:09:05;7.35;;;4.58;;
60336;SDS011;46978;50.288;28.624;2023-07-16T05:10:08;9.09;;;4.78;;
60336;SDS011;46978;50.288;28.624;2023-07-16T05:11:10;9.08;;;4.89;;
60336;SDS011;46978;50.288;28.624;2023-07-16T05:12:11;7.79;;;4.44;;
60336;SDS011;46978;50.288;28.624;2023-07-16T05:13:13;8.29;;;5.16;;
60336;SDS011;46978;50.288;28.624;2023-07-16T05:14:15;8.51;;;5.44;;
60336;SDS011;46978;50.288;28.624;2023-07-16T05:15:16;6.17;;;4.61;;
60336;SDS011;46978;50.288;28.624;2023-07-16T05:16:18;12.97;;;5.41;;
60336;SDS011;46978;50.288;28.624;2023-07-16T05:17:20;9.08;;;5.18;;
60336;SDS011;46978;50.288;28.624;2023-07-16T05:18:21;11.21;;;5.72;;
60336;SDS011;46978;50.288;28.624;2023-07-16T05:19:23;7.86;;;4.93;;
60336;SDS011;46978;50.288;28.624;2023-07-16T05:20:25;7.87;;;4.99;;
60336;SDS011;46978;50.288;28.624;2023-07-16T05:21:26;9.44;;;5.23;;
60336;SDS011;46978;50.288;28.624;2023-07-16T05:22:28;8.09;;;5.04;;
60336;SDS011;46978;50.288;28.624;2023-07-16T05:23:29;7.82;;;4.84;;
60336;SDS011;46978;50.288;28.624;2023-07-16T05:24:32;8.24;;;4.75;;
60336;SDS011;46978;50.288;28.624;2023-07-16T05:25:33;8.35;;;5.01;;
60336;SDS011;46978;50.288;28.624;2023-07-16T05:26:35;6.61;;;4.63;;
60336;SDS011;46978;50.288;28.624;2023-07-16T05:27:37;9.46;;;4.96;;
60336;SDS011;46978;50.288;28.624;2023-07-16T05:28:39;7.75;;;4.95;;
60336;SDS011;46978;50.288;28.624;2023-07-16T05:29:40;10.61;;;4.83;;
60336;SDS011;46978;50.288;28.624;2023-07-16T05:30:42;7.58;;;4.81;;
60336;SDS011;46978;50.288;28.624;2023-07-16T05:31:44;5.69;;;4.59;;
60336;SDS011;46978;50.288;28.624;2023-07-16T05:32:45;8.01;;;4.83;;
60336;SDS011;46978;50.288;28.624;2023-07-16T05:33:47;8.05;;;4.45;;
60336;SDS011;46978;50.288;28.624;2023-07-16T05:34:48;8.15;;;4.86;;
60336;SDS011;46978;50.288;28.624;2023-07-16T05:35:50;7.06;;;5.03;;
60336;SDS011;46978;50.288;28.624;2023-07-16T05:36:55;11.30;;;4.87;;
60336;SDS011;46978;50.288;28.624;2023-07-16T05:37:56;7.02;;;4.59;;
60336;SDS011;46978;50.288;28.624;2023-07-16T05:38:58;8.20;;;4.90;;
60336;SDS011;46978;50.288;28.624;2023-07-16T05:40:00;9.98;;;4.87;;
60336;SDS011;46978;50.288;28.624;2023-07-16T05:41:02;8.42;;;5.52;;
60336;SDS011;46978;50.288;28.624;2023-07-16T05:42:04;9.69;;;4.94;;
60336;SDS011;46978;50.288;28.624;2023-07-16T05:43:06;8.39;;;4.52;;
60336;SDS011;46978;50.288;28.624;2023-07-16T05:44:17;9.05;;;4.94;;
60336;SDS011;46978;50.288;28.624;2023-07-16T05:45:18;8.09;;;4.93;;
60336;SDS011;46978;50.288;28.624;2023-07-16T05:46:20;8.50;;;4.84;;
60336;SDS011;46978;50.288;28.624;2023-07-16T05:47:21;7.99;;;5.26;;
60336;SDS011;46978;50.288;28.624;2023-07-16T05:48:23;6.95;;;4.54;;
60336;SDS011;46978;50.288;28.624;2023-07-16T05:49:26;10.26;;;5.07;;
60336;SDS011;46978;50.288;28.624;2023-07-16T05:50:28;6.55;;;4.57;;
60336;SDS011;46978;50.288;28.624;2023-07-16T05:51:29;6.84;;;4.76;;
60336;SDS011;46978;50.288;28.624;2023-07-16T05:52:31;6.58;;;4.90;;
60336;SDS011;46978;50.288;28.624;2023-07-16T05:53:33;9.19;;;5.07;;
60336;SDS011;46978;50.288;28.624;2023-07-16T05:54:34;14.70;;;5.10;;
60336;SDS011;46978;50.288;28.624;2023-07-16T05:55:36;8.39;;;4.84;;
60336;SDS011;46978;50.288;28.624;2023-07-16T05:56:38;8.19;;;4.56;;
60336;SDS011;46978;50.288;28.624;2023-07-16T05:57:39;7.31;;;4.64;;
60336;SDS011;46978;50.288;28.624;2023-07-16T05:58:41;8.09;;;4.70;;
60336;SDS011;46978;50.288;28.624;2023-07-16T05:59:42;9.91;;;4.88;;
60336;SDS011;46978;50.288;28.624;2023-07-16T06:00:44;6.70;;;4.12;;
60336;SDS011;46978;50.288;28.624;2023-07-16T06:01:45;5.68;;;4.32;;
60336;SDS011;46978;50.288;28.624;2023-07-16T06:02:47;7.55;;;4.59;;
60336;SDS011;46978;50.288;28.624;2023-07-16T06:03:49;6.73;;;4.81;;
60336;SDS011;46978;50.288;28.624;2023-07-16T06:04:50;6.81;;;4.31;;
60336;SDS011;46978;50.288;28.624;2023-07-16T06:05:52;6.55;;;4.06;;
60336;SDS011;46978;50.288;28.624;2023-07-16T06:06:54;6.09;;;3.99;;
60336;SDS011;46978;50.288;28.624;2023-07-16T06:07:55;5.86;;;4.11;;
60336;SDS011;46978;50.288;28.624;2023-07-16T06:08:57;6.66;;;4.48;;
60336;SDS011;46978;50.288;28.624;2023-07-16T06:09:58;5.76;;;3.78;;
60336;SDS011;46978;50.288;28.624;2023-07-16T06:11:00;4.99;;;3.66;;
60336;SDS011;46978;50.288;28.624;2023-07-16T06:12:02;6.25;;;3.86;;
60336;SDS011;46978;50.288;28.624;2023-07-16T06:13:04;8.41;;;3.72;;
60336;SDS011;46978;50.288;28.624;2023-07-16T06:14:06;8.39;;;3.61;;